Atoka, New Mexico
Current Conditions -  °F | °C
As of 11:53 PM on Wednesday 22 Oct 2014 (Local Time) from KCNM Reporting Station
Clear Clear  
Wind Chill: 62°   Ceiling: Unl
Heat Index: 62°   Visibility: 7mi
Dew Point: 59°   Wind: 7mph
Humidity: 90%   Direction: 160°SSE
Pressure: 30.11"   Gusts: NA
Location:  32.7449°N, 104.256°W
Report Text: KCNM 230553Z AUTO 16006KT 7SM CLR 17/15 A3011 RMK AO2 SLP156 T01670150 10217 20167 50004 $
Loading
Personal Weather Stations






























Interactive Weather Map New forecast layout! Learn more

10-Day Weather Forecast

Advertisements
Track Severe Weather on mobile